createdAt,value
2022-12-27T00:00:15.173Z,6.15
2022-12-27T00:01:15.156Z,6.10
2022-12-27T00:02:15.167Z,6.09
2022-12-27T00:03:15.160Z,6.10
2022-12-27T00:04:15.045Z,6.12
2022-12-27T00:05:15.048Z,6.10
2022-12-27T00:06:15.024Z,6.09
2022-12-27T00:07:15.006Z,6.12
2022-12-27T00:08:14.996Z,6.09
2022-12-27T00:09:15.009Z,6.10
2022-12-27T00:10:14.974Z,6.06
2022-12-27T00:11:14.981Z,6.07
2022-12-27T00:12:14.974Z,6.07
2022-12-27T00:13:14.949Z,6.06
2022-12-27T00:14:14.949Z,6.06
2022-12-27T00:15:14.925Z,6.06
2022-12-27T00:16:14.946Z,6.07
2022-12-27T00:17:14.951Z,6.05
2022-12-27T00:18:14.895Z,6.06
2022-12-27T00:19:14.885Z,6.06
2022-12-27T00:20:14.884Z,6.06
2022-12-27T00:21:14.894Z,6.05
2022-12-27T00:22:14.861Z,6.02
2022-12-27T00:23:14.876Z,6.02
2022-12-27T00:24:14.845Z,6.05
2022-12-27T00:25:14.817Z,6.05
2022-12-27T00:26:14.804Z,6.05
2022-12-27T00:27:14.795Z,6.02
2022-12-27T00:28:14.785Z,5.99
2022-12-27T00:29:14.785Z,6.02
2022-12-27T00:30:14.765Z,6.05
2022-12-27T00:31:14.908Z,6.02
2022-12-27T00:32:14.745Z,6.01
2022-12-27T00:33:14.735Z,6.05
2022-12-27T00:34:14.745Z,6.02
2022-12-27T00:35:14.714Z,6.06
2022-12-27T00:36:14.708Z,6.02
2022-12-27T00:37:14.804Z,6.02
2022-12-27T00:38:14.785Z,6.05
2022-12-27T00:39:14.679Z,6.05
2022-12-27T00:40:14.673Z,6.05
2022-12-27T00:41:14.656Z,6.06
2022-12-27T00:42:14.654Z,6.02
2022-12-27T00:43:14.638Z,6.06
2022-12-27T00:44:14.617Z,6.05
2022-12-27T00:45:14.604Z,6.02
2022-12-27T00:46:14.613Z,6.02
2022-12-27T00:47:14.582Z,6.02
2022-12-27T00:48:14.575Z,6.02
2022-12-27T00:49:14.563Z,6.05
2022-12-27T00:50:14.556Z,6.02
2022-12-27T00:51:14.550Z,6.06
2022-12-27T00:52:14.542Z,6.05
2022-12-27T00:53:14.517Z,6.05
2022-12-27T00:54:14.519Z,6.02
2022-12-27T00:55:14.493Z,6.02
2022-12-27T00:56:14.491Z,5.99
2022-12-27T00:57:14.475Z,6.01
2022-12-27T00:58:14.464Z,5.99
2022-12-27T00:59:14.625Z,5.99
2022-12-27T01:00:14.577Z,5.99
2022-12-27T01:01:14.582Z,5.99
2022-12-27T01:02:14.458Z,5.98
2022-12-27T01:03:14.402Z,5.97
2022-12-27T01:04:14.436Z,5.97
2022-12-27T01:05:14.483Z,5.97
2022-12-27T01:06:14.387Z,5.95
2022-12-27T01:07:14.364Z,5.97
2022-12-27T01:08:14.360Z,5.95
2022-12-27T01:09:14.370Z,5.94
2022-12-27T01:10:14.358Z,5.91
2022-12-27T01:11:14.333Z,5.94
2022-12-27T01:12:14.321Z,5.91
2022-12-27T01:13:14.311Z,5.94
2022-12-27T01:14:14.322Z,5.90
2022-12-27T01:15:14.279Z,5.91
2022-12-27T01:16:14.350Z,5.92
2022-12-27T01:17:14.260Z,5.92
2022-12-27T01:18:14.250Z,5.92
2022-12-27T01:19:14.250Z,5.94
2022-12-27T01:20:14.250Z,5.88
2022-12-27T01:21:14.230Z,5.90
2022-12-27T01:22:14.234Z,5.88
2022-12-27T01:23:14.202Z,5.88
2022-12-27T01:24:14.188Z,5.87
2022-12-27T01:25:14.170Z,5.87
2022-12-27T01:26:14.162Z,5.83
2022-12-27T01:27:14.160Z,5.88
2022-12-27T01:28:14.149Z,5.87
2022-12-27T01:29:14.134Z,5.87
2022-12-27T01:30:14.153Z,5.84
2022-12-27T01:31:14.172Z,5.87
2022-12-27T01:32:14.099Z,5.81
2022-12-27T01:33:14.089Z,5.84
2022-12-27T01:34:14.079Z,5.84
2022-12-27T01:35:14.087Z,5.83
2022-12-27T01:36:14.065Z,5.83
2022-12-27T01:37:14.047Z,5.81
2022-12-27T01:38:14.038Z,5.83
2022-12-27T01:39:14.022Z,5.83
2022-12-27T01:40:14.038Z,5.81
2022-12-27T01:41:14.018Z,5.83
2022-12-27T01:42:13.988Z,5.80
2022-12-27T01:43:13.979Z,5.83
2022-12-27T01:44:13.967Z,5.80
2022-12-27T01:45:13.984Z,5.81
2022-12-27T01:46:13.995Z,5.80
2022-12-27T01:47:13.940Z,5.83
2022-12-27T01:48:13.930Z,5.80
2022-12-27T01:49:13.918Z,5.81
2022-12-27T01:50:13.917Z,5.80
2022-12-27T01:51:13.887Z,5.79
2022-12-27T01:52:13.896Z,5.77
2022-12-27T01:53:13.891Z,5.80
2022-12-27T01:54:13.887Z,5.74
2022-12-27T01:55:13.867Z,5.77
2022-12-27T01:56:13.836Z,5.79
2022-12-27T01:57:13.830Z,5.77
2022-12-27T01:58:13.822Z,5.76
2022-12-27T01:59:13.800Z,5.76
2022-12-27T02:00:13.815Z,5.74
2022-12-27T02:01:13.939Z,5.76
2022-12-27T02:02:13.930Z,5.74
2022-12-27T02:03:13.837Z,5.74
2022-12-27T02:04:13.759Z,5.77
2022-12-27T02:05:13.743Z,5.73
2022-12-27T02:06:13.734Z,5.73
2022-12-27T02:07:13.725Z,5.73
2022-12-27T02:08:13.727Z,5.74
2022-12-27T02:09:13.699Z,5.72
2022-12-27T02:10:13.726Z,5.70
2022-12-27T02:11:13.686Z,5.72
2022-12-27T02:12:13.667Z,5.72
2022-12-27T02:13:13.655Z,5.74
2022-12-27T02:14:13.643Z,5.72
2022-12-27T02:15:13.643Z,5.72
2022-12-27T02:16:13.623Z,5.69
2022-12-27T02:17:13.617Z,5.73
2022-12-27T02:18:13.640Z,5.72
2022-12-27T02:19:13.633Z,5.72
2022-12-27T02:20:13.610Z,5.72
2022-12-27T02:21:13.572Z,5.72
2022-12-27T02:22:13.563Z,5.69
2022-12-27T02:23:13.552Z,5.72
2022-12-27T02:24:13.532Z,5.70
2022-12-27T02:25:13.552Z,5.70
2022-12-27T02:26:13.522Z,5.70
2022-12-27T02:27:13.517Z,5.73
2022-12-27T02:28:13.503Z,5.70
2022-12-27T02:29:13.502Z,5.73
2022-12-27T02:30:13.501Z,5.73
2022-12-27T02:31:13.492Z,5.73
2022-12-27T02:32:13.467Z,5.73
2022-12-27T02:33:13.449Z,5.73
2022-12-27T02:34:13.452Z,5.73
2022-12-27T02:35:13.430Z,5.73
2022-12-27T02:36:13.410Z,5.74
2022-12-27T02:37:13.408Z,5.73
2022-12-27T02:38:13.392Z,5.74
2022-12-27T02:39:13.386Z,5.76
2022-12-27T02:40:13.381Z,5.73
2022-12-27T02:41:13.360Z,5.74
2022-12-27T02:42:13.357Z,5.74
2022-12-27T02:43:13.349Z,5.74
2022-12-27T02:44:13.356Z,5.73
2022-12-27T02:45:13.311Z,5.73
2022-12-27T02:46:17.158Z,5.73
2022-12-27T02:47:14.299Z,5.74
2022-12-27T02:48:13.279Z,5.72
2022-12-27T02:49:13.280Z,5.73
2022-12-27T02:50:13.280Z,5.73
2022-12-27T02:51:13.248Z,5.73
2022-12-27T02:52:13.242Z,5.72
2022-12-27T02:53:13.232Z,5.70
2022-12-27T02:54:13.220Z,5.70
2022-12-27T02:55:13.211Z,5.70
2022-12-27T02:56:13.207Z,5.69
2022-12-27T02:57:13.183Z,5.72
2022-12-27T02:58:13.176Z,5.70
2022-12-27T02:59:13.164Z,5.70
2022-12-27T03:00:13.154Z,5.70
2022-12-27T03:01:13.232Z,5.70
2022-12-27T03:02:13.267Z,5.67
2022-12-27T03:03:13.163Z,5.72
2022-12-27T03:04:13.120Z,5.65
2022-12-27T03:05:13.110Z,5.65
2022-12-27T03:06:13.097Z,5.67
2022-12-27T03:07:13.077Z,5.65
2022-12-27T03:08:13.068Z,5.67
2022-12-27T03:09:13.054Z,5.65
2022-12-27T03:10:13.039Z,5.64
2022-12-27T03:11:13.037Z,5.65
2022-12-27T03:12:13.038Z,5.67
2022-12-27T03:13:13.007Z,5.65
2022-12-27T03:14:13.001Z,5.65
2022-12-27T03:15:12.988Z,5.67
2022-12-27T03:16:13.105Z,5.67
2022-12-27T03:17:12.968Z,5.64
2022-12-27T03:18:12.965Z,5.62
2022-12-27T03:19:12.955Z,5.67
2022-12-27T03:20:12.945Z,5.67
2022-12-27T03:21:12.934Z,5.64
2022-12-27T03:22:12.915Z,5.64
2022-12-27T03:23:12.921Z,5.67
2022-12-27T03:24:12.895Z,5.65
2022-12-27T03:25:12.884Z,5.64
2022-12-27T03:26:12.884Z,5.65
2022-12-27T03:27:12.861Z,5.67
2022-12-27T03:28:12.856Z,5.69
2022-12-27T03:29:12.834Z,5.67
2022-12-27T03:30:12.864Z,5.67
2022-12-27T03:31:12.859Z,5.64
2022-12-27T03:32:12.817Z,5.65
2022-12-27T03:33:12.793Z,5.67
2022-12-27T03:34:12.792Z,5.64
2022-12-27T03:35:12.784Z,5.65
2022-12-27T03:36:12.767Z,5.67
2022-12-27T03:37:12.754Z,5.65
2022-12-27T03:38:12.752Z,5.65
2022-12-27T03:39:12.736Z,5.65
2022-12-27T03:40:12.753Z,5.67
2022-12-27T03:41:12.713Z,5.69
2022-12-27T03:42:12.702Z,5.67
2022-12-27T03:43:12.704Z,5.65
2022-12-27T03:44:12.683Z,5.67
2022-12-27T03:45:12.674Z,5.65
2022-12-27T03:46:12.725Z,5.64
2022-12-27T03:47:12.669Z,5.67
2022-12-27T03:48:12.641Z,5.67
2022-12-27T03:49:12.622Z,5.69
2022-12-27T03:50:12.629Z,5.65
2022-12-27T03:51:12.615Z,5.64
2022-12-27T03:52:12.607Z,5.65
2022-12-27T03:53:12.580Z,5.69
2022-12-27T03:54:12.583Z,5.65
2022-12-27T03:55:12.564Z,5.67
2022-12-27T03:56:12.550Z,5.67
2022-12-27T03:57:12.549Z,5.67
2022-12-27T03:58:12.554Z,5.69
2022-12-27T03:59:12.569Z,5.65
2022-12-27T04:00:12.562Z,5.65
2022-12-27T04:01:12.605Z,5.67
2022-12-27T04:02:12.625Z,5.65
2022-12-27T04:03:12.513Z,5.69
2022-12-27T04:04:12.469Z,5.67
2022-12-27T04:05:12.449Z,5.69
2022-12-27T04:06:12.439Z,5.67
2022-12-27T04:07:12.455Z,5.67
2022-12-27T04:08:12.420Z,5.67
2022-12-27T04:09:12.411Z,5.70
2022-12-27T04:10:12.409Z,5.65
2022-12-27T04:11:12.407Z,5.69
2022-12-27T04:12:12.398Z,5.67
2022-12-27T04:13:12.370Z,5.67
2022-12-27T04:14:12.361Z,5.70
2022-12-27T04:15:12.340Z,5.67
2022-12-27T04:16:12.358Z,5.72
2022-12-27T04:17:12.343Z,5.69
2022-12-27T04:18:12.318Z,5.70
2022-12-27T04:19:12.300Z,5.69
2022-12-27T04:20:12.317Z,5.69
2022-12-27T04:21:12.277Z,5.69
2022-12-27T04:22:12.287Z,5.69
2022-12-27T04:23:12.257Z,5.70
2022-12-27T04:24:12.257Z,5.69
2022-12-27T04:25:12.236Z,5.70
2022-12-27T04:26:12.236Z,5.69
2022-12-27T04:27:12.257Z,5.72
2022-12-27T04:28:12.221Z,5.70
2022-12-27T04:29:12.211Z,5.70
2022-12-27T04:30:12.271Z,5.67
2022-12-27T04:31:12.216Z,5.69
2022-12-27T04:32:12.176Z,5.69
2022-12-27T04:33:12.166Z,5.73
2022-12-27T04:34:12.145Z,5.70
2022-12-27T04:35:12.158Z,5.69
2022-12-27T04:36:12.135Z,5.70
2022-12-27T04:37:12.130Z,5.72
2022-12-27T04:38:12.099Z,5.70
2022-12-27T04:39:12.096Z,5.70
2022-12-27T04:40:12.089Z,5.69
2022-12-27T04:41:12.065Z,5.72
2022-12-27T04:42:12.095Z,5.73
2022-12-27T04:43:12.045Z,5.73
2022-12-27T04:44:12.035Z,5.72
2022-12-27T04:45:15.356Z,5.73
2022-12-27T04:46:12.021Z,5.72
2022-12-27T04:47:12.021Z,5.73
2022-12-27T04:48:12.025Z,5.72
2022-12-27T04:49:11.983Z,5.73
2022-12-27T04:50:11.968Z,5.70
2022-12-27T04:51:11.973Z,5.73
2022-12-27T04:52:11.964Z,5.72
2022-12-27T04:53:11.948Z,5.73
2022-12-27T04:54:11.934Z,5.72
2022-12-27T04:55:11.921Z,5.74
2022-12-27T04:56:11.908Z,5.73
2022-12-27T04:57:11.911Z,5.73
2022-12-27T04:58:11.882Z,5.74
2022-12-27T04:59:11.871Z,5.76
2022-12-27T05:00:11.855Z,5.74
2022-12-27T05:01:14.255Z,5.74
2022-12-27T05:02:11.979Z,5.77
2022-12-27T05:03:11.960Z,5.77
2022-12-27T05:04:11.819Z,5.77
2022-12-27T05:05:11.835Z,5.77
2022-12-27T05:06:11.799Z,5.76
2022-12-27T05:07:11.790Z,5.79
2022-12-27T05:08:11.779Z,5.81
2022-12-27T05:09:11.781Z,5.81
2022-12-27T05:10:11.769Z,5.77
2022-12-27T05:11:11.769Z,5.79
2022-12-27T05:12:11.728Z,5.81
2022-12-27T05:13:11.733Z,5.81
2022-12-27T05:14:11.710Z,5.80
2022-12-27T05:15:11.709Z,5.81
2022-12-27T05:16:11.741Z,5.80
2022-12-27T05:17:11.712Z,5.80
2022-12-27T05:18:11.689Z,5.83
2022-12-27T05:19:11.879Z,5.83
2022-12-27T05:20:11.648Z,5.81
2022-12-27T05:21:11.640Z,5.83
2022-12-27T05:22:11.635Z,5.87
2022-12-27T05:23:11.630Z,5.87
2022-12-27T05:24:11.608Z,5.83
2022-12-27T05:25:11.613Z,5.87
2022-12-27T05:26:11.587Z,5.84
2022-12-27T05:27:11.586Z,5.88
2022-12-27T05:28:11.581Z,5.83
2022-12-27T05:29:11.578Z,5.84
2022-12-27T05:30:11.543Z,5.84
2022-12-27T05:31:11.563Z,5.83
2022-12-27T05:32:13.662Z,5.84
2022-12-27T05:33:11.519Z,5.88
2022-12-27T05:34:11.534Z,5.87
2022-12-27T05:35:11.494Z,5.87
2022-12-27T05:36:11.475Z,5.87
2022-12-27T05:37:11.483Z,5.87
2022-12-27T05:38:11.466Z,5.87
2022-12-27T05:39:11.447Z,5.90
2022-12-27T05:40:11.441Z,5.90
2022-12-27T05:41:11.429Z,5.91
2022-12-27T05:42:11.417Z,5.92
2022-12-27T05:43:11.432Z,5.92
2022-12-27T05:44:11.398Z,5.92
2022-12-27T05:45:11.386Z,5.95
2022-12-27T05:46:11.411Z,5.92
2022-12-27T05:47:11.367Z,5.91
2022-12-27T05:48:11.375Z,5.94
2022-12-27T05:49:11.344Z,5.95
2022-12-27T05:50:11.334Z,5.92
2022-12-27T05:51:11.325Z,5.95
2022-12-27T05:52:11.314Z,5.97
2022-12-27T05:53:11.342Z,5.98
2022-12-27T05:54:11.304Z,5.98
2022-12-27T05:55:11.297Z,5.98
2022-12-27T05:56:11.273Z,5.99
2022-12-27T05:57:11.257Z,6.01
2022-12-27T05:58:11.261Z,6.01
2022-12-27T05:59:11.235Z,6.01
2022-12-27T06:00:11.236Z,6.05
2022-12-27T06:01:11.325Z,6.02
2022-12-27T06:02:11.398Z,6.06
2022-12-27T06:03:11.368Z,6.06
2022-12-27T06:04:11.188Z,6.06
2022-12-27T06:05:11.191Z,6.07
2022-12-27T06:06:11.163Z,6.09
2022-12-27T06:07:11.154Z,6.09
2022-12-27T06:08:11.161Z,6.12
2022-12-27T06:09:11.145Z,6.10
2022-12-27T06:10:11.109Z,6.12
2022-12-27T06:11:11.117Z,6.12
2022-12-27T06:12:11.105Z,6.16
2022-12-27T06:13:11.097Z,6.13
2022-12-27T06:14:11.084Z,6.12
2022-12-27T06:15:11.077Z,6.12
2022-12-27T06:16:11.100Z,6.12
2022-12-27T06:17:11.052Z,6.15
2022-12-27T06:18:11.061Z,6.15
2022-12-27T06:19:11.024Z,6.16
2022-12-27T06:20:11.059Z,6.16
2022-12-27T06:21:11.054Z,6.16
2022-12-27T06:22:10.989Z,6.17
2022-12-27T06:23:10.986Z,6.19
2022-12-27T06:24:11.059Z,6.15
2022-12-27T06:25:14.303Z,6.17
2022-12-27T06:26:10.962Z,6.17
2022-12-27T06:27:10.943Z,6.17
2022-12-27T06:28:10.930Z,6.17
2022-12-27T06:29:10.920Z,6.16
2022-12-27T06:30:10.900Z,6.19
2022-12-27T06:31:11.077Z,6.19
2022-12-27T06:32:10.882Z,6.19
2022-12-27T06:33:10.881Z,6.19
2022-12-27T06:34:10.864Z,6.19
2022-12-27T06:35:10.852Z,6.20
2022-12-27T06:36:10.852Z,6.16
2022-12-27T06:37:10.830Z,6.19
2022-12-27T06:38:10.830Z,6.19
2022-12-27T06:39:10.819Z,6.20
2022-12-27T06:40:10.797Z,6.17
2022-12-27T06:41:10.801Z,6.19
2022-12-27T06:42:10.808Z,6.19
2022-12-27T06:43:10.788Z,6.19
2022-12-27T06:44:10.757Z,6.17
2022-12-27T06:45:10.758Z,6.19
2022-12-27T06:46:16.729Z,6.17
2022-12-27T06:47:11.745Z,6.19
2022-12-27T06:48:10.717Z,6.19
2022-12-27T06:49:10.713Z,6.16
2022-12-27T06:50:10.696Z,6.15
2022-12-27T06:51:10.680Z,6.16
2022-12-27T06:52:10.673Z,6.15
2022-12-27T06:53:10.672Z,6.16
2022-12-27T06:54:10.596Z,6.16
2022-12-27T06:55:10.612Z,6.16
2022-12-27T06:56:10.642Z,6.12
2022-12-27T06:57:10.583Z,6.12
2022-12-27T06:58:10.604Z,6.10
2022-12-27T06:59:10.624Z,6.13
2022-12-27T07:00:10.555Z,6.10
2022-12-27T07:01:10.585Z,6.10
2022-12-27T07:02:10.731Z,6.07
2022-12-27T07:03:10.639Z,6.12
2022-12-27T07:04:10.508Z,6.09
2022-12-27T07:05:10.477Z,6.07
2022-12-27T07:06:10.465Z,6.06
2022-12-27T07:07:15.389Z,6.06
2022-12-27T07:08:11.463Z,6.06
2022-12-27T07:09:10.459Z,6.05
2022-12-27T07:10:10.425Z,6.05
2022-12-27T07:11:10.442Z,6.05
2022-12-27T07:12:10.430Z,6.02
2022-12-27T07:13:10.396Z,6.02
2022-12-27T07:14:10.439Z,6.05
2022-12-27T07:15:10.382Z,6.02
2022-12-27T07:16:10.398Z,6.02
2022-12-27T07:17:10.359Z,6.01
2022-12-27T07:18:10.343Z,5.99
2022-12-27T07:19:10.338Z,6.01
2022-12-27T07:20:10.336Z,5.98
2022-12-27T07:21:10.327Z,5.97
2022-12-27T07:22:10.298Z,6.02
2022-12-27T07:23:13.113Z,5.97
2022-12-27T07:24:11.276Z,5.95
2022-12-27T07:25:10.277Z,5.98
2022-12-27T07:26:10.265Z,5.95
2022-12-27T07:27:10.251Z,5.98
2022-12-27T07:28:10.224Z,5.94
2022-12-27T07:29:10.257Z,5.95
2022-12-27T07:30:10.224Z,5.91
2022-12-27T07:31:10.212Z,5.97
2022-12-27T07:32:10.255Z,5.92
2022-12-27T07:33:10.184Z,5.94
2022-12-27T07:34:10.169Z,5.91
2022-12-27T07:35:10.237Z,5.92
2022-12-27T07:36:10.138Z,5.94
2022-12-27T07:37:10.138Z,5.92
2022-12-27T07:38:10.139Z,5.91
2022-12-27T07:39:10.243Z,5.94
2022-12-27T07:40:10.107Z,5.94
2022-12-27T07:41:10.094Z,5.91
2022-12-27T07:42:10.080Z,5.92
2022-12-27T07:43:10.069Z,5.92
2022-12-27T07:44:10.063Z,5.92
2022-12-27T07:45:10.053Z,5.92
2022-12-27T07:46:10.072Z,5.94
2022-12-27T07:47:10.021Z,5.94
2022-12-27T07:48:10.024Z,5.91
2022-12-27T07:49:17.147Z,5.94
2022-12-27T07:50:10.994Z,5.91
2022-12-27T07:51:09.989Z,5.95
2022-12-27T07:52:09.972Z,5.95
2022-12-27T07:53:09.966Z,5.95
2022-12-27T07:54:09.980Z,5.94
2022-12-27T07:55:09.947Z,5.92
2022-12-27T07:56:09.925Z,5.94
2022-12-27T07:57:09.923Z,5.94
2022-12-27T07:58:09.909Z,5.94
2022-12-27T07:59:09.900Z,5.92
2022-12-27T08:00:09.904Z,5.94
2022-12-27T08:01:09.942Z,5.97
2022-12-27T08:02:09.987Z,5.94
2022-12-27T08:03:09.894Z,5.95
2022-12-27T08:04:09.839Z,5.94
2022-12-27T08:05:09.874Z,5.95
2022-12-27T08:06:09.831Z,5.94
2022-12-27T08:07:09.809Z,5.95
2022-12-27T08:08:09.799Z,5.94
2022-12-27T08:09:09.788Z,5.97
2022-12-27T08:10:09.787Z,5.98
2022-12-27T08:11:09.774Z,5.98
2022-12-27T08:12:09.760Z,5.98
2022-12-27T08:13:09.774Z,6.01
2022-12-27T08:14:09.736Z,5.99
2022-12-27T08:15:09.737Z,5.99
2022-12-27T08:16:09.726Z,6.01
2022-12-27T08:17:09.742Z,6.02
2022-12-27T08:18:09.686Z,6.02
2022-12-27T08:19:09.684Z,6.02
2022-12-27T08:20:09.706Z,6.05
2022-12-27T08:21:09.667Z,6.06
2022-12-27T08:22:09.670Z,6.06
2022-12-27T08:23:09.645Z,6.09
2022-12-27T08:24:09.628Z,6.06
2022-12-27T08:25:09.633Z,6.09
2022-12-27T08:26:09.605Z,6.07
2022-12-27T08:27:09.613Z,6.09
2022-12-27T08:28:09.592Z,6.10
2022-12-27T08:29:09.587Z,6.10
2022-12-27T08:30:09.565Z,6.13
2022-12-27T08:31:09.687Z,6.16
2022-12-27T08:32:09.553Z,6.15
2022-12-27T08:33:09.534Z,6.17
2022-12-27T08:34:09.525Z,6.17
2022-12-27T08:35:41.799Z,6.20
2022-12-27T08:36:29.113Z,6.20
2022-12-27T08:37:10.527Z,6.22
2022-12-27T08:38:09.482Z,6.22
2022-12-27T08:39:09.486Z,6.25
2022-12-27T08:40:09.475Z,6.26
2022-12-27T08:41:09.458Z,6.22
2022-12-27T08:42:09.443Z,6.26
2022-12-27T08:43:09.444Z,6.29
2022-12-27T08:44:09.414Z,6.31
2022-12-27T08:45:09.427Z,6.29
2022-12-27T08:46:09.500Z,6.32
2022-12-27T08:47:09.399Z,6.35
2022-12-27T08:48:09.453Z,6.34
2022-12-27T08:49:09.385Z,6.35
2022-12-27T08:50:09.353Z,6.35
2022-12-27T08:51:13.175Z,6.36
2022-12-27T08:52:09.347Z,6.36
2022-12-27T08:53:09.321Z,6.41
2022-12-27T08:54:09.370Z,6.43
2022-12-27T08:55:09.323Z,6.43
2022-12-27T08:56:09.300Z,6.41
2022-12-27T08:57:09.279Z,6.47
2022-12-27T08:58:15.747Z,6.46
2022-12-27T08:59:10.266Z,6.46
2022-12-27T09:00:09.250Z,6.47
2022-12-27T09:01:09.280Z,6.46
2022-12-27T09:02:09.309Z,6.49
2022-12-27T09:03:09.263Z,6.49
2022-12-27T09:04:09.239Z,6.49
2022-12-27T09:05:09.197Z,6.50
2022-12-27T09:06:09.189Z,6.52
2022-12-27T09:07:09.180Z,6.56
2022-12-27T09:08:09.193Z,6.56
2022-12-27T09:09:09.150Z,6.56
2022-12-27T09:10:09.152Z,6.56
2022-12-27T09:11:09.138Z,6.57
2022-12-27T09:12:09.553Z,6.59
2022-12-27T09:13:09.103Z,6.59
2022-12-27T09:14:09.099Z,6.60
2022-12-27T09:15:09.100Z,6.64
2022-12-27T09:16:09.160Z,6.62
2022-12-27T09:17:09.068Z,6.65
2022-12-27T09:18:09.058Z,6.68
2022-12-27T09:19:09.058Z,6.70
2022-12-27T09:20:09.055Z,6.72
2022-12-27T09:21:09.037Z,6.74
2022-12-27T09:22:09.019Z,6.75
2022-12-27T09:23:09.058Z,6.80
2022-12-27T09:24:09.005Z,6.82
2022-12-27T09:25:09.085Z,6.83
2022-12-27T09:26:08.988Z,6.87
2022-12-27T09:27:08.961Z,6.89
2022-12-27T09:28:08.970Z,6.92
2022-12-27T09:29:08.976Z,6.93
2022-12-27T09:30:08.930Z,7.01
2022-12-27T09:31:08.963Z,7.04
2022-12-27T09:32:08.908Z,7.04
2022-12-27T09:33:08.904Z,7.10
2022-12-27T09:34:08.908Z,7.11
2022-12-27T09:35:08.894Z,7.15
2022-12-27T09:36:08.886Z,7.21
2022-12-27T09:37:08.864Z,7.23
2022-12-27T09:38:08.858Z,7.22
2022-12-27T09:39:08.878Z,7.22
2022-12-27T09:40:08.863Z,7.26
2022-12-27T09:41:08.836Z,7.29
2022-12-27T09:43:19.439Z,7.32
2022-12-27T09:44:09.788Z,7.39
2022-12-27T09:45:08.831Z,7.41
2022-12-27T09:46:08.910Z,7.41
2022-12-27T09:47:08.986Z,7.44
2022-12-27T09:48:08.791Z,7.50
2022-12-27T09:49:08.717Z,7.48
2022-12-27T09:50:08.759Z,7.48
2022-12-27T09:51:08.728Z,7.51
2022-12-27T09:52:08.699Z,7.56
2022-12-27T09:53:08.693Z,7.56
2022-12-27T09:54:08.686Z,7.62
2022-12-27T09:55:08.703Z,7.64
2022-12-27T09:56:08.796Z,7.66
2022-12-27T09:57:19.962Z,7.72
2022-12-27T09:58:09.664Z,7.72
2022-12-27T09:59:08.667Z,7.74
2022-12-27T10:00:08.628Z,7.78
2022-12-27T10:01:08.617Z,7.81
2022-12-27T10:02:08.709Z,7.85
2022-12-27T10:03:08.677Z,7.87
2022-12-27T10:04:08.593Z,7.87
2022-12-27T10:05:23.962Z,7.85
2022-12-27T10:06:09.665Z,7.91
2022-12-27T10:07:08.554Z,7.96
2022-12-27T10:08:08.548Z,7.99
2022-12-27T10:09:08.502Z,8.05
2022-12-27T10:10:08.508Z,8.08
2022-12-27T10:11:08.532Z,8.14
2022-12-27T10:12:08.496Z,8.16
2022-12-27T10:13:08.486Z,8.20
2022-12-27T10:14:08.452Z,8.18
2022-12-27T10:15:08.467Z,8.20
2022-12-27T10:16:08.560Z,8.23
2022-12-27T10:17:08.453Z,8.28
2022-12-27T10:18:08.427Z,8.27
2022-12-27T10:19:08.394Z,8.35
2022-12-27T10:20:08.412Z,8.38
2022-12-27T10:21:08.396Z,8.44
2022-12-27T10:22:08.382Z,8.50
2022-12-27T10:23:08.359Z,8.56
2022-12-27T10:24:08.358Z,8.56
2022-12-27T10:25:08.358Z,8.57
2022-12-27T10:26:08.386Z,8.61
2022-12-27T10:27:08.331Z,8.60
2022-12-27T10:28:08.303Z,8.64
2022-12-27T10:29:08.298Z,8.63
2022-12-27T10:30:08.304Z,8.63
2022-12-27T10:31:08.388Z,8.64
2022-12-27T10:32:08.276Z,8.60
2022-12-27T10:33:08.248Z,8.63
2022-12-27T10:34:10.784Z,8.66
2022-12-27T10:35:08.302Z,8.68
2022-12-27T10:36:08.219Z,8.66
2022-12-27T10:37:08.219Z,8.68
2022-12-27T10:38:08.189Z,8.66
2022-12-27T10:39:08.169Z,8.69
2022-12-27T10:40:08.179Z,8.75
2022-12-27T10:41:08.155Z,8.82
2022-12-27T10:42:08.150Z,8.84
2022-12-27T10:43:08.136Z,8.87
2022-12-27T10:44:08.128Z,8.92
2022-12-27T10:45:08.115Z,8.97
2022-12-27T10:46:08.128Z,8.99
2022-12-27T10:47:08.113Z,9.03
2022-12-27T10:48:08.129Z,9.11
2022-12-27T10:49:20.738Z,9.15
2022-12-27T10:50:09.071Z,9.19
2022-12-27T10:51:08.058Z,9.22
2022-12-27T10:52:08.059Z,9.26
2022-12-27T10:53:08.030Z,9.31
2022-12-27T10:54:08.029Z,9.34
2022-12-27T10:55:08.001Z,9.39
2022-12-27T10:56:08.017Z,9.44
2022-12-27T10:57:07.968Z,9.48
2022-12-27T10:58:07.977Z,9.49
2022-12-27T10:59:07.996Z,9.47
2022-12-27T11:00:07.953Z,9.47
2022-12-27T11:01:07.965Z,9.45
2022-12-27T11:02:08.000Z,9.47
2022-12-27T11:03:07.969Z,9.51
2022-12-27T11:04:07.908Z,9.56
2022-12-27T11:05:07.915Z,9.64
2022-12-27T11:06:07.899Z,9.67
2022-12-27T11:07:08.212Z,9.66
2022-12-27T11:08:07.867Z,9.66
2022-12-27T11:09:07.849Z,9.66
2022-12-27T11:10:07.849Z,9.66
2022-12-27T11:11:08.464Z,9.69
2022-12-27T11:12:07.828Z,9.72
2022-12-27T11:13:07.870Z,9.77
2022-12-27T11:14:07.806Z,9.76
2022-12-27T11:15:07.807Z,9.74
2022-12-27T11:16:07.853Z,9.74
2022-12-27T11:17:07.774Z,9.76
2022-12-27T11:18:07.757Z,9.76
2022-12-27T11:19:07.747Z,9.82
2022-12-27T11:20:07.739Z,9.87
2022-12-27T11:21:10.628Z,9.85
2022-12-27T11:22:08.716Z,9.84
2022-12-27T11:23:07.747Z,9.90
2022-12-27T11:24:07.737Z,9.90
2022-12-27T11:25:07.706Z,9.92
2022-12-27T11:26:07.708Z,10.00
2022-12-27T11:27:07.666Z,10.07
2022-12-27T11:28:07.685Z,10.12
2022-12-27T11:29:07.645Z,10.06
2022-12-27T11:30:07.699Z,10.05
2022-12-27T11:31:07.669Z,10.03
2022-12-27T11:32:07.617Z,10.02
2022-12-27T11:33:07.614Z,9.99
2022-12-27T11:34:07.609Z,9.97
2022-12-27T11:35:07.638Z,9.95
2022-12-27T11:36:07.600Z,9.94
2022-12-27T11:37:07.568Z,9.94
2022-12-27T11:38:07.566Z,9.90
2022-12-27T11:39:07.544Z,9.88
2022-12-27T11:40:07.588Z,9.91
2022-12-27T11:41:07.511Z,9.90
2022-12-27T11:42:07.585Z,9.92
2022-12-27T11:43:07.518Z,9.92
2022-12-27T11:44:07.489Z,9.91
2022-12-27T11:45:07.472Z,9.92
2022-12-27T11:46:07.506Z,9.94
2022-12-27T11:47:07.460Z,9.92
2022-12-27T11:48:07.446Z,9.92
2022-12-27T11:49:07.415Z,9.94
2022-12-27T11:50:07.431Z,9.91
2022-12-27T11:51:07.460Z,9.94
2022-12-27T11:52:07.390Z,9.94
2022-12-27T11:53:07.452Z,9.94
2022-12-27T11:54:07.375Z,9.92
2022-12-27T11:55:07.449Z,9.94
2022-12-27T11:56:07.347Z,9.95
2022-12-27T11:57:07.350Z,9.97
2022-12-27T11:58:07.346Z,9.97
2022-12-27T11:59:07.578Z,10.02
2022-12-27T12:00:07.308Z,10.07
2022-12-27T12:01:07.329Z,10.12
2022-12-27T12:02:07.384Z,10.12
2022-12-27T12:03:07.338Z,10.13
2022-12-27T12:04:07.295Z,10.15
2022-12-27T12:05:07.358Z,10.15
2022-12-27T12:06:07.251Z,10.13
2022-12-27T12:07:07.259Z,10.17
2022-12-27T12:08:07.239Z,10.17
2022-12-27T12:09:07.215Z,10.24
2022-12-27T12:10:07.320Z,10.27
2022-12-27T12:11:07.188Z,10.28
2022-12-27T12:12:07.175Z,10.31
2022-12-27T12:13:07.207Z,10.38
2022-12-27T12:14:07.230Z,10.38
2022-12-27T12:15:07.162Z,10.39
2022-12-27T12:16:07.162Z,10.41
2022-12-27T12:17:07.125Z,10.42
2022-12-27T12:18:07.220Z,10.42
2022-12-27T12:19:07.135Z,10.43
2022-12-27T12:20:07.078Z,10.46
2022-12-27T12:21:07.075Z,10.46
2022-12-27T12:22:07.145Z,10.46
2022-12-27T12:23:07.081Z,10.49
2022-12-27T12:24:07.095Z,10.48
2022-12-27T12:25:07.021Z,10.48
2022-12-27T12:26:07.037Z,10.48
2022-12-27T12:27:07.024Z,10.46
2022-12-27T12:28:23.123Z,10.42
2022-12-27T12:29:08.060Z,10.45
2022-12-27T12:30:06.990Z,10.46
2022-12-27T12:31:06.977Z,10.45
2022-12-27T12:32:06.999Z,10.46
2022-12-27T12:33:06.954Z,10.46
2022-12-27T12:34:06.937Z,10.48
2022-12-27T12:35:06.923Z,10.45
2022-12-27T12:36:06.966Z,10.46
2022-12-27T12:37:06.936Z,10.48
2022-12-27T12:38:06.932Z,10.49
2022-12-27T12:39:06.965Z,10.49
2022-12-27T12:40:06.885Z,10.49
2022-12-27T12:41:06.859Z,10.51
2022-12-27T12:42:06.845Z,10.55
2022-12-27T12:43:06.822Z,10.59
2022-12-27T12:44:06.933Z,10.65
2022-12-27T12:45:06.852Z,10.77
2022-12-27T12:46:06.823Z,10.89
2022-12-27T12:47:06.773Z,11.01
2022-12-27T12:48:06.783Z,11.23
2022-12-27T12:49:06.764Z,11.48
2022-12-27T12:50:13.230Z,11.68
2022-12-27T12:51:07.755Z,11.93
2022-12-27T12:52:06.751Z,12.08
2022-12-27T12:53:06.712Z,12.21
2022-12-27T12:54:06.735Z,12.43
2022-12-27T12:55:06.775Z,12.63
2022-12-27T12:56:06.686Z,12.88
2022-12-27T12:57:06.676Z,13.11
2022-12-27T12:58:06.668Z,13.37
2022-12-27T12:59:06.643Z,13.52
2022-12-27T13:00:06.662Z,13.70
2022-12-27T13:01:06.631Z,13.87
2022-12-27T13:02:06.731Z,14.03
2022-12-27T13:03:06.836Z,14.22
2022-12-27T13:04:06.696Z,14.30
2022-12-27T13:05:06.619Z,14.25
2022-12-27T13:06:06.617Z,14.08
2022-12-27T13:07:06.591Z,13.86
2022-12-27T13:08:06.564Z,13.73
2022-12-27T13:09:06.588Z,13.54
2022-12-27T13:10:06.564Z,13.33
2022-12-27T13:11:06.534Z,13.19
2022-12-27T13:12:06.539Z,13.02
2022-12-27T13:13:06.543Z,12.88
2022-12-27T13:14:06.543Z,12.73
2022-12-27T13:15:06.499Z,12.62
2022-12-27T13:16:06.503Z,12.50